Stockport, United Kingdom
Current Conditions -  °F | °C
As of 8:20 AM on Thursday 29 Jan 2015 (Local Time) from EGCC Reporting Station
Snow Showers Snow Showers  
Wind Chill: 26°   Ceiling: 1000
Heat Index: 34°   Visibility: 2.8mi
Dew Point: 34°   Wind: 10mph
Humidity: 100%   Direction: 270°W
Pressure: 29"   Gusts: NA
Location:  53.41°N, 2.15°W
Report Text: EGCC 290820Z 27009KT 4500 -SHSN FEW003TCU SCT006 BKN010 01/01 Q0982 RESHSN
Loading
Personal Weather Stations






























Interactive Weather Map New forecast layout! Learn more

10-Day Weather Forecast

Advertisements
Track Severe Weather on mobile